createdAt,value
2024-03-10T00:01:34.385Z,29.80
2024-03-10T00:04:03.785Z,30.02
2024-03-10T00:06:33.311Z,29.13
2024-03-10T00:09:02.703Z,28.83
2024-03-10T00:11:32.352Z,29.65
2024-03-10T00:14:02.274Z,28.38
2024-03-10T00:16:31.728Z,29.95
2024-03-10T00:19:01.241Z,29.65
2024-03-10T00:21:31.225Z,28.10
2024-03-10T00:24:02.490Z,29.98
2024-03-10T00:26:32.578Z,28.30
2024-03-10T00:29:02.098Z,28.10
2024-03-10T00:31:32.783Z,30.48
2024-03-10T00:34:02.266Z,29.73
2024-03-10T00:36:31.613Z,30.58
2024-03-10T00:39:01.226Z,30.05
2024-03-10T00:41:30.715Z,28.38
2024-03-10T00:44:00.420Z,28.70
2024-03-10T00:46:30.614Z,29.70
2024-03-10T00:49:00.973Z,31.13
2024-03-10T00:51:30.399Z,29.90
2024-03-10T00:53:59.684Z,31.80
2024-03-10T00:56:32.187Z,33.13
2024-03-10T00:59:01.808Z,31.35
2024-03-10T01:01:31.921Z,32.08
2024-03-10T01:04:01.378Z,31.23
2024-03-10T01:06:30.718Z,31.65
2024-03-10T01:09:01.565Z,32.67
2024-03-10T01:11:31.115Z,30.25
2024-03-10T01:14:03.081Z,31.48
2024-03-10T01:16:32.697Z,32.55
2024-03-10T01:19:02.204Z,30.42
2024-03-10T01:21:31.694Z,32.80
2024-03-10T01:24:02.570Z,32.05
2024-03-10T01:26:33.699Z,31.08
2024-03-10T01:29:03.820Z,31.75
2024-03-10T01:31:33.675Z,30.83
2024-03-10T01:34:03.380Z,30.50
2024-03-10T01:36:33.536Z,29.58
2024-03-10T01:39:03.260Z,31.23
2024-03-10T01:41:35.841Z,30.17
2024-03-10T01:44:06.359Z,29.38
2024-03-10T01:46:40.193Z,31.15
2024-03-10T01:49:10.744Z,29.35
2024-03-10T01:51:44.135Z,30.27
2024-03-10T01:54:15.970Z,29.42
2024-03-10T01:56:46.513Z,29.90
2024-03-10T01:59:16.266Z,28.40
2024-03-10T02:01:48.422Z,29.35
2024-03-10T02:04:22.469Z,28.70
2024-03-10T02:06:52.570Z,29.98
2024-03-10T02:09:23.381Z,29.05
2024-03-10T02:11:53.146Z,29.20
2024-03-10T02:14:22.756Z,30.08
2024-03-10T02:16:52.340Z,31.08
2024-03-10T02:19:21.745Z,30.55
2024-03-10T02:21:51.187Z,33.50
2024-03-10T02:24:33.880Z,31.80
2024-03-10T02:27:03.737Z,32.88
2024-03-10T02:29:51.903Z,29.63
2024-03-10T02:32:39.382Z,31.50
2024-03-10T02:35:28.061Z,29.77
2024-03-10T02:38:15.911Z,30.13
2024-03-10T02:41:04.091Z,30.88
2024-03-10T02:43:51.646Z,31.33
2024-03-10T02:46:42.224Z,30.07
2024-03-10T02:49:12.766Z,28.05
2024-03-10T02:51:45.916Z,29.08
2024-03-10T02:54:15.515Z,29.23
2024-03-10T02:56:45.081Z,29.08
2024-03-10T02:59:14.499Z,27.67
2024-03-10T03:01:43.917Z,27.80
2024-03-10T03:04:13.288Z,29.70
2024-03-10T03:06:42.888Z,31.10
2024-03-10T03:09:12.375Z,30.10
2024-03-10T03:11:42.703Z,28.80
2024-03-10T03:14:12.978Z,27.73
2024-03-10T03:16:45.382Z,30.30
2024-03-10T03:19:15.493Z,30.50
2024-03-10T03:21:48.124Z,28.30
2024-03-10T03:24:17.656Z,28.90
2024-03-10T03:26:47.058Z,29.25
2024-03-10T03:29:16.491Z,28.25
2024-03-10T03:31:45.980Z,29.25
2024-03-10T03:34:15.544Z,30.10
2024-03-10T03:36:46.131Z,29.58
2024-03-10T03:39:15.812Z,50.50
2024-03-10T03:41:45.156Z,29.38
2024-03-10T03:44:14.646Z,30.08
2024-03-10T03:46:44.266Z,31.25
2024-03-10T03:49:15.965Z,29.55
2024-03-10T03:51:46.403Z,30.58
2024-03-10T03:54:17.154Z,29.45
2024-03-10T03:56:46.589Z,30.00
2024-03-10T03:59:19.220Z,29.85
2024-03-10T04:01:48.710Z,32.22
2024-03-10T04:04:18.618Z,31.58
2024-03-10T04:06:48.276Z,31.92
2024-03-10T04:09:20.272Z,30.58
2024-03-10T04:11:49.830Z,28.60
2024-03-10T04:14:19.705Z,28.60
2024-03-10T04:16:52.077Z,29.67
2024-03-10T04:19:32.271Z,30.33
2024-03-10T04:22:05.911Z,28.02
2024-03-10T04:24:37.568Z,31.77
2024-03-10T04:27:13.015Z,27.67
2024-03-10T04:29:44.593Z,29.05
2024-03-10T04:32:14.996Z,29.75
2024-03-10T04:34:44.807Z,28.50
2024-03-10T04:37:14.698Z,27.58
2024-03-10T04:39:44.212Z,27.90
2024-03-10T04:42:14.536Z,29.15
2024-03-10T04:44:46.211Z,29.50
2024-03-10T04:47:15.700Z,27.75
2024-03-10T04:49:45.593Z,26.83
2024-03-10T04:52:15.191Z,27.27
2024-03-10T04:54:44.587Z,25.65
2024-03-10T04:57:14.158Z,26.95
2024-03-10T04:59:43.670Z,27.23
2024-03-10T05:02:13.188Z,25.38
2024-03-10T05:04:42.706Z,26.90
2024-03-10T05:07:12.429Z,27.02
2024-03-10T05:09:43.170Z,27.95
2024-03-10T05:12:14.800Z,26.80
2024-03-10T05:14:44.333Z,26.65
2024-03-10T05:17:13.938Z,26.67
2024-03-10T05:19:47.181Z,27.85
2024-03-10T05:22:19.731Z,26.33
2024-03-10T05:24:49.242Z,26.33
2024-03-10T05:27:18.612Z,26.13
2024-03-10T05:29:48.040Z,25.73
2024-03-10T05:32:18.188Z,25.92
2024-03-10T05:34:48.879Z,27.17
2024-03-10T05:37:18.370Z,26.70
2024-03-10T05:39:47.743Z,25.58
2024-03-10T05:42:17.696Z,27.33
2024-03-10T05:44:47.121Z,25.33
2024-03-10T05:47:16.458Z,26.70
2024-03-10T05:49:47.019Z,26.83
2024-03-10T05:52:18.946Z,25.70
2024-03-10T05:54:49.810Z,27.00
2024-03-10T05:57:19.637Z,26.98
2024-03-10T05:59:49.500Z,26.05
2024-03-10T06:02:19.193Z,25.08
2024-03-10T06:04:48.644Z,25.88
2024-03-10T06:07:18.127Z,25.88
2024-03-10T06:09:47.496Z,25.27
2024-03-10T06:12:16.995Z,26.15
2024-03-10T06:14:46.432Z,25.55
2024-03-10T06:17:16.033Z,24.17
2024-03-10T06:20:03.908Z,24.05
2024-03-10T06:25:32.797Z,24.75
2024-03-10T06:28:02.197Z,24.70
2024-03-10T06:30:31.593Z,26.02
2024-03-10T06:33:01.292Z,26.48
2024-03-10T06:35:31.180Z,25.17
2024-03-10T06:38:02.441Z,26.40
2024-03-10T06:40:31.935Z,26.83
2024-03-10T06:43:02.680Z,25.52
2024-03-10T06:45:32.425Z,26.10
2024-03-10T06:48:02.064Z,26.50
2024-03-10T06:50:34.282Z,24.58
2024-03-10T06:53:05.112Z,25.17
2024-03-10T06:55:34.915Z,26.55
2024-03-10T06:58:07.744Z,22.73
2024-03-10T07:00:37.329Z,25.13
2024-03-10T07:03:07.307Z,25.40
2024-03-10T07:05:37.090Z,25.05
2024-03-10T07:08:06.913Z,24.77
2024-03-10T07:10:40.265Z,24.27
2024-03-10T07:13:13.569Z,24.50
2024-03-10T07:15:43.041Z,23.85
2024-03-10T07:18:12.506Z,24.70
2024-03-10T07:20:42.076Z,25.20
2024-03-10T07:23:11.872Z,25.23
2024-03-10T07:25:41.422Z,25.23
2024-03-10T07:28:10.746Z,24.95
2024-03-10T07:30:42.655Z,24.38
2024-03-10T07:33:12.237Z,24.95
2024-03-10T07:35:42.287Z,23.38
2024-03-10T07:38:12.130Z,25.15
2024-03-10T07:40:41.541Z,24.17
2024-03-10T07:43:11.038Z,24.92
2024-03-10T07:45:40.445Z,24.92
2024-03-10T07:48:10.317Z,23.40
2024-03-10T07:50:39.966Z,23.67
2024-03-10T07:53:09.371Z,22.27
2024-03-10T07:55:39.163Z,23.15
2024-03-10T07:58:09.047Z,24.48
2024-03-10T08:00:38.499Z,23.83
2024-03-10T08:03:08.164Z,23.83
2024-03-10T08:05:38.224Z,23.92
2024-03-10T08:08:08.113Z,23.92
2024-03-10T08:10:37.560Z,24.08
2024-03-10T08:13:07.203Z,27.00
2024-03-10T08:15:36.983Z,23.70
2024-03-10T08:18:06.877Z,23.58
2024-03-10T08:20:37.815Z,23.40
2024-03-10T08:23:08.145Z,24.67
2024-03-10T08:25:37.926Z,24.05
2024-03-10T08:28:07.940Z,23.63
2024-03-10T08:30:37.395Z,25.20
2024-03-10T08:33:08.508Z,24.48
2024-03-10T08:35:40.076Z,24.60
2024-03-10T08:38:09.568Z,23.98
2024-03-10T08:40:39.369Z,23.80
2024-03-10T08:43:09.767Z,22.92
2024-03-10T08:45:40.783Z,22.67
2024-03-10T08:48:11.402Z,23.63
2024-03-10T08:50:42.862Z,24.45
2024-03-10T08:53:12.493Z,23.63
2024-03-10T08:55:43.110Z,22.98
2024-03-10T08:58:12.472Z,25.88
2024-03-10T09:00:42.066Z,24.50
2024-03-10T09:03:14.424Z,23.40
2024-03-10T09:05:43.918Z,24.83
2024-03-10T09:08:15.873Z,24.15
2024-03-10T09:10:53.406Z,46.20
2024-03-10T09:13:28.436Z,22.90
2024-03-10T09:15:57.972Z,24.02
2024-03-10T09:18:27.964Z,23.40
2024-03-10T09:21:00.079Z,24.60
2024-03-10T09:23:30.313Z,23.23
2024-03-10T09:26:02.898Z,24.10
2024-03-10T09:28:32.601Z,24.58
2024-03-10T09:31:02.266Z,23.23
2024-03-10T09:33:31.781Z,24.75
2024-03-10T09:36:01.230Z,24.42
2024-03-10T09:38:30.715Z,25.27
2024-03-10T09:41:02.126Z,22.58
2024-03-10T09:43:33.594Z,24.13
2024-03-10T09:46:03.879Z,23.10
2024-03-10T09:48:34.772Z,23.95
2024-03-10T09:51:05.143Z,22.63
2024-03-10T09:53:34.662Z,24.10
2024-03-10T09:56:04.733Z,23.70
2024-03-10T09:58:49.704Z,24.45
2024-03-10T10:01:23.117Z,25.00
2024-03-10T10:03:54.936Z,22.60
2024-03-10T10:06:28.543Z,23.25
2024-03-10T10:08:57.956Z,23.38
2024-03-10T10:11:28.244Z,23.50
2024-03-10T10:14:17.961Z,23.80
2024-03-10T10:17:05.318Z,24.48
2024-03-10T10:19:36.590Z,25.88
2024-03-10T10:22:07.919Z,24.23
2024-03-10T10:24:38.367Z,24.63
2024-03-10T10:27:08.123Z,24.60
2024-03-10T10:29:54.594Z,24.27
2024-03-10T10:32:26.412Z,23.42
2024-03-10T10:34:58.808Z,24.60
2024-03-10T10:37:36.418Z,23.77
2024-03-10T10:40:13.391Z,24.77
2024-03-10T10:42:53.851Z,23.90
2024-03-10T10:45:31.179Z,23.83
2024-03-10T10:48:03.465Z,24.08
2024-03-10T10:50:36.647Z,25.27
2024-03-10T10:53:09.188Z,24.25
2024-03-10T10:55:42.347Z,26.33
2024-03-10T10:58:18.880Z,25.67
2024-03-10T11:01:02.037Z,27.38
2024-03-10T11:03:43.721Z,28.27
2024-03-10T11:06:36.347Z,28.88
2024-03-10T11:09:16.809Z,29.77
2024-03-10T11:11:51.056Z,30.92
2024-03-10T11:14:24.515Z,31.48
2024-03-10T11:17:18.976Z,27.23
2024-03-10T11:19:55.105Z,28.20
2024-03-10T11:22:34.144Z,27.05
2024-03-10T11:25:18.804Z,28.27
2024-03-10T11:27:49.068Z,27.17
2024-03-10T11:30:43.169Z,26.73
2024-03-10T11:33:15.815Z,28.73
2024-03-10T11:35:46.147Z,29.95
2024-03-10T11:38:20.005Z,27.40
2024-03-10T11:41:01.778Z,27.63
2024-03-10T11:43:32.020Z,25.88
2024-03-10T11:46:01.453Z,27.50
2024-03-10T11:48:34.348Z,30.05
2024-03-10T11:51:04.449Z,30.65
2024-03-10T11:53:36.813Z,31.40
2024-03-10T11:56:06.775Z,31.55
2024-03-10T11:58:39.177Z,31.77
2024-03-10T12:01:10.820Z,31.27
2024-03-10T12:03:42.982Z,32.40
2024-03-10T12:06:15.888Z,31.88
2024-03-10T12:08:47.157Z,29.42
2024-03-10T12:11:18.093Z,31.25
2024-03-10T12:13:53.802Z,32.75
2024-03-10T12:16:24.356Z,36.33
2024-03-10T12:18:53.879Z,38.10
2024-03-10T12:21:29.957Z,36.25
2024-03-10T12:24:02.772Z,34.83
2024-03-10T12:26:34.885Z,35.30
2024-03-10T12:29:06.070Z,36.15
2024-03-10T12:31:39.645Z,35.53
2024-03-10T12:34:10.088Z,35.15
2024-03-10T12:36:39.461Z,36.05
2024-03-10T12:39:13.761Z,36.97
2024-03-10T12:41:43.175Z,36.05
2024-03-10T12:44:15.612Z,38.60
2024-03-10T12:46:45.191Z,38.70
2024-03-10T12:49:17.711Z,37.05
2024-03-10T12:51:50.937Z,39.45
2024-03-10T12:54:20.318Z,40.72
2024-03-10T12:56:50.082Z,40.22
2024-03-10T12:59:19.467Z,40.15
2024-03-10T13:01:49.040Z,41.13
2024-03-10T13:04:19.198Z,40.95
2024-03-10T13:06:49.226Z,40.50
2024-03-10T13:09:18.885Z,41.65
2024-03-10T13:11:48.391Z,40.28
2024-03-10T13:14:18.112Z,41.95
2024-03-10T13:16:47.547Z,39.03
2024-03-10T13:19:19.627Z,40.58
2024-03-10T13:21:48.947Z,40.97
2024-03-10T13:24:18.351Z,42.63
2024-03-10T13:26:47.957Z,43.67
2024-03-10T13:29:19.035Z,42.92
2024-03-10T13:31:48.389Z,41.92
2024-03-10T13:34:17.826Z,43.42
2024-03-10T13:36:47.235Z,43.50
2024-03-10T13:39:17.482Z,43.28
2024-03-10T13:41:48.337Z,42.88
2024-03-10T13:44:23.635Z,45.55
2024-03-10T13:46:59.303Z,45.30
2024-03-10T13:49:29.344Z,47.25
2024-03-10T13:51:59.733Z,46.20
2024-03-10T13:54:29.223Z,45.30
2024-03-10T13:56:58.703Z,44.67
2024-03-10T13:59:28.251Z,46.00
2024-03-10T14:01:58.672Z,44.13
2024-03-10T14:04:34.038Z,45.42
2024-03-10T14:07:03.483Z,43.95
2024-03-10T14:09:33.260Z,45.38
2024-03-10T14:12:05.872Z,46.45
2024-03-10T14:14:36.547Z,46.65
2024-03-10T14:17:06.272Z,47.17
2024-03-10T14:19:39.262Z,47.03
2024-03-10T14:22:08.989Z,45.67
2024-03-10T14:24:40.982Z,49.63
2024-03-10T14:27:10.844Z,50.92
2024-03-10T14:29:41.543Z,48.33
2024-03-10T14:32:11.033Z,49.83
2024-03-10T14:34:43.303Z,47.65
2024-03-10T14:37:12.760Z,48.72
2024-03-10T14:39:42.467Z,48.30
2024-03-10T14:42:12.108Z,48.40
2024-03-10T14:44:41.576Z,48.38
2024-03-10T14:47:11.588Z,47.28
2024-03-10T14:49:41.365Z,49.10
2024-03-10T14:52:13.967Z,47.90
2024-03-10T14:54:43.878Z,48.83
2024-03-10T14:57:13.439Z,46.63
2024-03-10T14:59:45.558Z,48.08
2024-03-10T15:02:16.469Z,49.28
2024-03-10T15:04:45.949Z,47.63
2024-03-10T15:07:17.515Z,48.10
2024-03-10T15:09:47.541Z,47.65
2024-03-10T15:12:18.523Z,47.65
2024-03-10T15:14:48.711Z,46.88
2024-03-10T15:17:19.463Z,45.70
2024-03-10T15:19:48.939Z,46.03
2024-03-10T15:22:20.170Z,44.20
2024-03-10T15:24:49.788Z,44.25
2024-03-10T15:27:20.064Z,44.78
2024-03-10T15:29:52.512Z,43.83
2024-03-10T15:32:25.147Z,42.22
2024-03-10T15:34:54.608Z,41.33
2024-03-10T15:37:24.297Z,41.47
2024-03-10T15:39:53.855Z,43.03
2024-03-10T15:42:24.009Z,41.70
2024-03-10T15:44:56.552Z,42.03
2024-03-10T15:47:25.930Z,41.70
2024-03-10T15:49:56.232Z,42.47
2024-03-10T15:52:29.692Z,43.65
2024-03-10T15:54:59.553Z,42.80
2024-03-10T15:57:29.136Z,44.53
2024-03-10T15:59:58.529Z,44.13
2024-03-10T16:02:28.230Z,44.28
2024-03-10T16:04:58.145Z,42.83
2024-03-10T16:07:27.576Z,44.15
2024-03-10T16:09:57.189Z,42.80
2024-03-10T16:12:31.373Z,46.25
2024-03-10T16:15:01.068Z,47.22
2024-03-10T16:17:34.966Z,44.80
2024-03-10T16:20:05.382Z,46.85
2024-03-10T16:22:34.820Z,45.95
2024-03-10T16:25:04.450Z,47.13
2024-03-10T16:27:34.146Z,46.83
2024-03-10T16:30:03.697Z,47.33
2024-03-10T16:32:33.780Z,47.83
2024-03-10T16:35:03.218Z,48.33
2024-03-10T16:37:32.834Z,47.63
2024-03-10T16:40:03.235Z,47.83
2024-03-10T16:42:33.129Z,47.92
2024-03-10T16:45:08.640Z,48.03
2024-03-10T16:47:38.679Z,48.00
2024-03-10T16:50:11.879Z,48.92
2024-03-10T16:52:43.088Z,48.45
2024-03-10T16:55:15.729Z,49.17
2024-03-10T16:57:45.069Z,48.28
2024-03-10T17:00:17.924Z,50.95
2024-03-10T17:02:50.331Z,47.95
2024-03-10T17:05:21.953Z,48.42
2024-03-10T17:07:52.588Z,48.25
2024-03-10T17:10:22.218Z,47.42
2024-03-10T17:12:51.686Z,47.38
2024-03-10T17:15:21.440Z,47.00
2024-03-10T17:17:52.977Z,47.35
2024-03-10T17:20:23.746Z,47.92
2024-03-10T17:22:53.364Z,47.25
2024-03-10T17:25:23.012Z,46.83
2024-03-10T17:27:52.392Z,46.05
2024-03-10T17:30:21.799Z,46.53
2024-03-10T17:32:53.748Z,44.15
2024-03-10T17:35:25.826Z,44.28
2024-03-10T17:37:55.274Z,44.40
2024-03-10T17:40:29.526Z,45.55
2024-03-10T17:42:59.308Z,42.40
2024-03-10T17:45:28.794Z,43.25
2024-03-10T17:47:58.349Z,44.35
2024-03-10T17:50:28.009Z,45.03
2024-03-10T17:52:58.989Z,43.53
2024-03-10T17:55:28.461Z,43.60
2024-03-10T17:57:57.964Z,45.00
2024-03-10T18:00:28.506Z,46.42
2024-03-10T18:02:58.857Z,43.20
2024-03-10T18:05:29.031Z,40.95
2024-03-10T18:07:59.534Z,42.65
2024-03-10T18:10:29.470Z,41.05
2024-03-10T18:12:58.893Z,40.97
2024-03-10T18:15:29.309Z,40.92
2024-03-10T18:18:01.245Z,40.53
2024-03-10T18:20:30.975Z,40.47
2024-03-10T18:23:00.667Z,42.55
2024-03-10T18:25:36.486Z,43.47
2024-03-10T18:28:06.261Z,40.58
2024-03-10T18:30:35.770Z,41.95
2024-03-10T18:33:08.659Z,43.00
2024-03-10T18:35:38.390Z,40.67
2024-03-10T18:38:08.114Z,41.45
2024-03-10T18:40:37.572Z,39.30
2024-03-10T18:43:07.194Z,38.55
2024-03-10T18:45:36.667Z,39.17
2024-03-10T18:48:06.670Z,41.30
2024-03-10T18:50:36.989Z,38.92
2024-03-10T18:53:06.858Z,41.80
2024-03-10T18:55:36.218Z,40.42
2024-03-10T18:58:06.146Z,39.10
2024-03-10T19:00:36.726Z,38.88
2024-03-10T19:03:09.084Z,38.00
2024-03-10T19:05:39.077Z,35.78
2024-03-10T19:08:08.789Z,34.97
2024-03-10T19:10:38.461Z,35.03
2024-03-10T19:13:09.887Z,37.92
2024-03-10T19:15:40.663Z,35.33
2024-03-10T19:18:10.535Z,32.95
2024-03-10T19:20:41.366Z,30.88
2024-03-10T19:23:11.665Z,31.17
2024-03-10T19:25:41.041Z,28.58
2024-03-10T19:28:10.934Z,28.33
2024-03-10T19:30:40.366Z,28.92
2024-03-10T19:33:11.388Z,28.88
2024-03-10T19:35:40.827Z,29.08
2024-03-10T19:38:12.882Z,29.17
2024-03-10T19:40:42.391Z,28.92
2024-03-10T19:43:14.744Z,29.13
2024-03-10T19:45:44.377Z,27.48
2024-03-10T19:48:19.729Z,27.35
2024-03-10T19:50:53.740Z,27.25
2024-03-10T19:53:23.871Z,29.95
2024-03-10T19:55:55.759Z,28.25
2024-03-10T19:58:29.246Z,27.88
2024-03-10T20:00:58.734Z,28.85
2024-03-10T20:03:28.275Z,27.50
2024-03-10T20:05:57.681Z,29.30
2024-03-10T20:08:27.096Z,27.75
2024-03-10T20:10:57.472Z,26.90
2024-03-10T20:13:26.892Z,28.65
2024-03-10T20:15:56.745Z,26.98
2024-03-10T20:18:28.340Z,27.65
2024-03-10T20:20:57.929Z,28.17
2024-03-10T20:23:27.970Z,26.65
2024-03-10T20:25:58.862Z,27.60
2024-03-10T20:28:28.428Z,27.90
2024-03-10T20:30:58.791Z,26.50
2024-03-10T20:33:28.791Z,27.88
2024-03-10T20:35:58.300Z,27.45
2024-03-10T20:38:28.338Z,26.63
2024-03-10T20:40:59.177Z,28.90
2024-03-10T20:43:28.593Z,27.45
2024-03-10T20:46:00.121Z,27.45
2024-03-10T20:48:34.162Z,27.92
2024-03-10T20:51:03.880Z,26.80
2024-03-10T20:53:33.454Z,28.33
2024-03-10T20:56:02.985Z,27.85
2024-03-10T20:58:32.413Z,26.90
2024-03-10T21:01:01.956Z,28.20
2024-03-10T21:03:31.350Z,27.00
2024-03-10T21:06:00.714Z,26.42
2024-03-10T21:08:31.969Z,26.70
2024-03-10T21:11:01.553Z,26.65
2024-03-10T21:13:31.796Z,26.35
2024-03-10T21:16:04.997Z,27.75
2024-03-10T21:18:35.424Z,27.95
2024-03-10T21:21:07.304Z,26.08
2024-03-10T21:23:36.808Z,27.13
2024-03-10T21:26:06.671Z,28.30
2024-03-10T21:28:36.164Z,27.02
2024-03-10T21:31:05.763Z,27.92
2024-03-10T21:33:35.918Z,28.48
2024-03-10T21:36:06.698Z,27.50
2024-03-10T21:38:36.734Z,27.63
2024-03-10T21:41:07.698Z,28.63
2024-03-10T21:43:37.324Z,29.15
2024-03-10T21:46:06.980Z,31.85
2024-03-10T21:48:36.529Z,31.60
2024-03-10T21:51:08.468Z,30.27
2024-03-10T21:53:38.359Z,29.98
2024-03-10T21:56:08.678Z,31.70
2024-03-10T21:58:39.083Z,31.27
2024-03-10T22:01:08.723Z,29.20
2024-03-10T22:03:38.118Z,29.23
2024-03-10T22:06:07.804Z,27.20
2024-03-10T22:08:37.791Z,26.35
2024-03-10T22:11:08.186Z,27.33
2024-03-10T22:13:37.883Z,26.85
2024-03-10T22:16:07.974Z,27.95
2024-03-10T22:18:37.675Z,28.33
2024-03-10T22:21:07.391Z,27.20
2024-03-10T22:23:36.850Z,29.02
2024-03-10T22:26:08.436Z,27.77
2024-03-10T22:28:37.873Z,27.52
2024-03-10T22:31:07.668Z,27.65
2024-03-10T22:33:37.667Z,29.63
2024-03-10T22:36:07.886Z,30.30
2024-03-10T22:38:37.668Z,29.55
2024-03-10T22:41:07.273Z,28.92
2024-03-10T22:43:38.186Z,28.60
2024-03-10T22:46:07.837Z,29.00
2024-03-10T22:48:37.980Z,29.50
2024-03-10T22:51:08.015Z,28.23
2024-03-10T22:53:37.989Z,30.33
2024-03-10T22:56:08.245Z,27.77
2024-03-10T22:58:37.747Z,30.90
2024-03-10T23:01:13.358Z,28.27
2024-03-10T23:03:45.495Z,28.13
2024-03-10T23:06:15.184Z,28.85
2024-03-10T23:08:44.784Z,28.95
2024-03-10T23:11:14.289Z,27.10
2024-03-10T23:13:43.821Z,27.52
2024-03-10T23:16:13.602Z,29.08
2024-03-10T23:18:45.307Z,29.20
2024-03-10T23:21:15.002Z,29.33
2024-03-10T23:23:44.504Z,29.83
2024-03-10T23:26:14.596Z,29.45
2024-03-10T23:28:45.234Z,28.92
2024-03-10T23:31:14.696Z,29.55
2024-03-10T23:33:44.258Z,30.38
2024-03-10T23:36:22.077Z,29.13
2024-03-10T23:38:52.188Z,28.80
2024-03-10T23:41:22.832Z,29.55
2024-03-10T23:43:53.546Z,29.33
2024-03-10T23:46:23.718Z,28.75
2024-03-10T23:48:54.229Z,29.23
2024-03-10T23:51:23.788Z,29.15
2024-03-10T23:53:53.923Z,29.00
2024-03-10T23:56:24.078Z,29.75
2024-03-10T23:58:56.207Z,29.23
